sensor_id;sensor_type;location;lat;lon;timestamp;P1;durP1;ratioP1;P2;durP2;ratioP2
47772;SDS011;33534;51.028;13.716;2023-04-01T00:00:24;6.10;;;2.03;;
47772;SDS011;33534;51.028;13.716;2023-04-01T00:02:50;3.50;;;1.65;;
47772;SDS011;33534;51.028;13.716;2023-04-01T00:05:16;2.55;;;0.88;;
47772;SDS011;33534;51.028;13.716;2023-04-01T00:07:43;5.85;;;1.90;;
47772;SDS011;33534;51.028;13.716;2023-04-01T00:10:10;11.98;;;5.97;;
47772;SDS011;33534;51.028;13.716;2023-04-01T00:12:36;3.10;;;1.25;;
47772;SDS011;33534;51.028;13.716;2023-04-01T00:15:03;4.20;;;2.80;;
47772;SDS011;33534;51.028;13.716;2023-04-01T00:17:29;3.35;;;1.33;;
47772;SDS011;33534;51.028;13.716;2023-04-01T00:19:56;3.03;;;1.10;;
47772;SDS011;33534;51.028;13.716;2023-04-01T00:22:22;4.05;;;1.35;;
47772;SDS011;33534;51.028;13.716;2023-04-01T00:24:48;7.30;;;2.33;;
47772;SDS011;33534;51.028;13.716;2023-04-01T00:27:14;3.22;;;1.13;;
47772;SDS011;33534;51.028;13.716;2023-04-01T00:29:44;5.22;;;1.55;;
47772;SDS011;33534;51.028;13.716;2023-04-01T00:32:11;4.72;;;1.23;;
47772;SDS011;33534;51.028;13.716;2023-04-01T00:34:37;4.00;;;1.40;;
47772;SDS011;33534;51.028;13.716;2023-04-01T00:37:04;4.68;;;2.97;;
47772;SDS011;33534;51.028;13.716;2023-04-01T00:39:31;5.15;;;1.08;;
47772;SDS011;33534;51.028;13.716;2023-04-01T00:41:58;4.25;;;1.25;;
47772;SDS011;33534;51.028;13.716;2023-04-01T00:44:25;2.70;;;0.85;;
47772;SDS011;33534;51.028;13.716;2023-04-01T00:46:51;3.38;;;1.17;;
47772;SDS011;33534;51.028;13.716;2023-04-01T00:49:19;3.78;;;1.15;;
47772;SDS011;33534;51.028;13.716;2023-04-01T00:51:45;4.63;;;2.00;;
47772;SDS011;33534;51.028;13.716;2023-04-01T00:54:13;2.53;;;1.23;;
47772;SDS011;33534;51.028;13.716;2023-04-01T00:56:47;4.05;;;1.55;;
47772;SDS011;33534;51.028;13.716;2023-04-01T00:59:16;4.75;;;1.77;;
47772;SDS011;33534;51.028;13.716;2023-04-01T01:01:44;3.33;;;1.15;;
47772;SDS011;33534;51.028;13.716;2023-04-01T01:04:23;4.72;;;1.52;;
47772;SDS011;33534;51.028;13.716;2023-04-01T01:06:53;5.97;;;1.55;;
47772;SDS011;33534;51.028;13.716;2023-04-01T01:12:05;2.47;;;0.77;;
47772;SDS011;33534;51.028;13.716;2023-04-01T01:14:40;3.83;;;1.20;;
47772;SDS011;33534;51.028;13.716;2023-04-01T01:27:34;4.90;;;1.35;;
47772;SDS011;33534;51.028;13.716;2023-04-01T01:37:56;3.58;;;0.80;;
47772;SDS011;33534;51.028;13.716;2023-04-01T01:40:24;4.88;;;1.88;;
47772;SDS011;33534;51.028;13.716;2023-04-01T01:42:53;1.73;;;1.23;;
47772;SDS011;33534;51.028;13.716;2023-04-01T01:45:21;4.82;;;2.00;;
47772;SDS011;33534;51.028;13.716;2023-04-01T01:47:49;5.10;;;2.75;;
47772;SDS011;33534;51.028;13.716;2023-04-01T01:50:16;2.03;;;0.65;;
47772;SDS011;33534;51.028;13.716;2023-04-01T01:52:42;6.05;;;1.75;;
47772;SDS011;33534;51.028;13.716;2023-04-01T01:55:25;4.13;;;1.55;;
47772;SDS011;33534;51.028;13.716;2023-04-01T01:57:52;4.05;;;1.48;;
47772;SDS011;33534;51.028;13.716;2023-04-01T02:00:18;7.22;;;1.30;;
47772;SDS011;33534;51.028;13.716;2023-04-01T02:02:45;5.93;;;1.58;;
47772;SDS011;33534;51.028;13.716;2023-04-01T02:05:14;6.18;;;0.82;;
47772;SDS011;33534;51.028;13.716;2023-04-01T02:07:42;6.00;;;1.40;;
47772;SDS011;33534;51.028;13.716;2023-04-01T02:10:08;4.72;;;0.93;;
47772;SDS011;33534;51.028;13.716;2023-04-01T02:12:34;6.43;;;1.23;;
47772;SDS011;33534;51.028;13.716;2023-04-01T02:15:03;4.45;;;1.25;;
47772;SDS011;33534;51.028;13.716;2023-04-01T02:17:31;3.75;;;1.00;;
47772;SDS011;33534;51.028;13.716;2023-04-01T02:20:02;7.30;;;1.55;;
47772;SDS011;33534;51.028;13.716;2023-04-01T02:22:33;5.43;;;1.08;;
47772;SDS011;33534;51.028;13.716;2023-04-01T02:25:07;5.10;;;1.77;;
47772;SDS011;33534;51.028;13.716;2023-04-01T02:27:34;2.83;;;1.00;;
47772;SDS011;33534;51.028;13.716;2023-04-01T02:30:00;4.80;;;1.17;;
47772;SDS011;33534;51.028;13.716;2023-04-01T02:32:26;6.18;;;1.77;;
47772;SDS011;33534;51.028;13.716;2023-04-01T02:34:53;3.13;;;1.27;;
47772;SDS011;33534;51.028;13.716;2023-04-01T02:37:19;3.40;;;1.10;;
47772;SDS011;33534;51.028;13.716;2023-04-01T02:39:45;3.35;;;1.23;;
47772;SDS011;33534;51.028;13.716;2023-04-01T02:42:12;5.10;;;1.30;;
47772;SDS011;33534;51.028;13.716;2023-04-01T02:44:38;4.78;;;1.40;;
47772;SDS011;33534;51.028;13.716;2023-04-01T02:47:04;4.80;;;1.15;;
47772;SDS011;33534;51.028;13.716;2023-04-01T02:49:31;4.22;;;1.08;;
47772;SDS011;33534;51.028;13.716;2023-04-01T02:51:56;5.13;;;1.42;;
47772;SDS011;33534;51.028;13.716;2023-04-01T02:54:22;7.45;;;2.38;;
47772;SDS011;33534;51.028;13.716;2023-04-01T02:56:48;5.50;;;1.27;;
47772;SDS011;33534;51.028;13.716;2023-04-01T02:59:14;7.88;;;1.65;;
47772;SDS011;33534;51.028;13.716;2023-04-01T03:01:40;3.53;;;1.15;;
47772;SDS011;33534;51.028;13.716;2023-04-01T03:04:06;5.38;;;1.58;;
47772;SDS011;33534;51.028;13.716;2023-04-01T03:06:32;4.15;;;1.45;;
47772;SDS011;33534;51.028;13.716;2023-04-01T03:08:58;7.70;;;1.88;;
47772;SDS011;33534;51.028;13.716;2023-04-01T03:11:24;3.70;;;1.15;;
47772;SDS011;33534;51.028;13.716;2023-04-01T03:13:51;7.05;;;2.05;;
47772;SDS011;33534;51.028;13.716;2023-04-01T03:16:17;3.30;;;1.10;;
47772;SDS011;33534;51.028;13.716;2023-04-01T03:18:43;4.35;;;1.48;;
47772;SDS011;33534;51.028;13.716;2023-04-01T03:21:16;3.40;;;1.40;;
47772;SDS011;33534;51.028;13.716;2023-04-01T03:23:42;4.00;;;1.17;;
47772;SDS011;33534;51.028;13.716;2023-04-01T03:26:08;5.03;;;1.42;;
47772;SDS011;33534;51.028;13.716;2023-04-01T03:28:34;6.78;;;1.35;;
47772;SDS011;33534;51.028;13.716;2023-04-01T03:31:00;3.80;;;1.30;;
47772;SDS011;33534;51.028;13.716;2023-04-01T03:33:26;4.90;;;1.67;;
47772;SDS011;33534;51.028;13.716;2023-04-01T03:35:52;5.25;;;1.13;;
47772;SDS011;33534;51.028;13.716;2023-04-01T03:38:19;7.20;;;1.48;;
47772;SDS011;33534;51.028;13.716;2023-04-01T03:40:45;4.13;;;1.08;;
47772;SDS011;33534;51.028;13.716;2023-04-01T03:43:11;5.53;;;1.35;;
47772;SDS011;33534;51.028;13.716;2023-04-01T03:45:44;4.70;;;1.75;;
47772;SDS011;33534;51.028;13.716;2023-04-01T03:48:10;3.03;;;1.10;;
47772;SDS011;33534;51.028;13.716;2023-04-01T03:50:36;6.45;;;2.08;;
47772;SDS011;33534;51.028;13.716;2023-04-01T03:53:02;5.53;;;1.58;;
47772;SDS011;33534;51.028;13.716;2023-04-01T03:55:28;4.00;;;1.15;;
47772;SDS011;33534;51.028;13.716;2023-04-01T03:57:54;3.88;;;0.90;;
47772;SDS011;33534;51.028;13.716;2023-04-01T04:00:20;5.18;;;1.60;;
47772;SDS011;33534;51.028;13.716;2023-04-01T04:02:46;3.97;;;1.13;;
47772;SDS011;33534;51.028;13.716;2023-04-01T04:05:12;3.05;;;0.90;;
47772;SDS011;33534;51.028;13.716;2023-04-01T04:07:38;3.90;;;1.48;;
47772;SDS011;33534;51.028;13.716;2023-04-01T04:10:04;3.33;;;1.20;;
47772;SDS011;33534;51.028;13.716;2023-04-01T04:12:30;5.32;;;1.33;;
47772;SDS011;33534;51.028;13.716;2023-04-01T04:14:56;5.93;;;1.33;;
47772;SDS011;33534;51.028;13.716;2023-04-01T04:17:22;4.88;;;1.30;;
47772;SDS011;33534;51.028;13.716;2023-04-01T04:19:48;6.00;;;1.55;;
47772;SDS011;33534;51.028;13.716;2023-04-01T04:22:14;7.78;;;1.98;;
47772;SDS011;33534;51.028;13.716;2023-04-01T04:24:40;5.60;;;1.10;;
47772;SDS011;33534;51.028;13.716;2023-04-01T04:27:06;3.63;;;1.10;;
47772;SDS011;33534;51.028;13.716;2023-04-01T04:29:32;3.05;;;1.17;;
47772;SDS011;33534;51.028;13.716;2023-04-01T04:31:58;3.20;;;0.82;;
47772;SDS011;33534;51.028;13.716;2023-04-01T04:34:25;2.83;;;0.88;;
47772;SDS011;33534;51.028;13.716;2023-04-01T04:36:51;5.50;;;1.35;;
47772;SDS011;33534;51.028;13.716;2023-04-01T04:39:17;2.47;;;0.98;;
47772;SDS011;33534;51.028;13.716;2023-04-01T04:41:43;6.68;;;1.90;;
47772;SDS011;33534;51.028;13.716;2023-04-01T04:44:09;2.28;;;1.40;;
47772;SDS011;33534;51.028;13.716;2023-04-01T04:46:35;7.05;;;1.85;;
47772;SDS011;33534;51.028;13.716;2023-04-01T04:49:02;4.75;;;1.35;;
47772;SDS011;33534;51.028;13.716;2023-04-01T04:51:28;6.88;;;1.70;;
47772;SDS011;33534;51.028;13.716;2023-04-01T04:53:55;9.40;;;2.05;;
47772;SDS011;33534;51.028;13.716;2023-04-01T04:56:21;6.55;;;1.80;;
47772;SDS011;33534;51.028;13.716;2023-04-01T04:58:48;3.70;;;1.30;;
47772;SDS011;33534;51.028;13.716;2023-04-01T05:01:15;5.00;;;1.55;;
47772;SDS011;33534;51.028;13.716;2023-04-01T05:03:42;4.70;;;2.08;;
47772;SDS011;33534;51.028;13.716;2023-04-01T05:06:08;8.27;;;3.22;;
47772;SDS011;33534;51.028;13.716;2023-04-01T05:08:35;3.72;;;1.35;;
47772;SDS011;33534;51.028;13.716;2023-04-01T05:11:02;4.28;;;1.27;;
47772;SDS011;33534;51.028;13.716;2023-04-01T05:13:28;4.40;;;1.55;;
47772;SDS011;33534;51.028;13.716;2023-04-01T05:15:54;6.95;;;2.55;;
47772;SDS011;33534;51.028;13.716;2023-04-01T05:18:21;6.10;;;2.08;;
47772;SDS011;33534;51.028;13.716;2023-04-01T05:20:47;5.53;;;2.20;;
47772;SDS011;33534;51.028;13.716;2023-04-01T05:23:14;5.07;;;1.98;;
47772;SDS011;33534;51.028;13.716;2023-04-01T05:25:40;5.78;;;2.17;;
47772;SDS011;33534;51.028;13.716;2023-04-01T05:28:06;5.03;;;1.42;;
47772;SDS011;33534;51.028;13.716;2023-04-01T05:30:32;4.25;;;1.05;;
47772;SDS011;33534;51.028;13.716;2023-04-01T05:32:58;3.42;;;1.13;;
47772;SDS011;33534;51.028;13.716;2023-04-01T05:35:24;5.43;;;1.48;;
47772;SDS011;33534;51.028;13.716;2023-04-01T05:37:50;3.22;;;1.05;;
47772;SDS011;33534;51.028;13.716;2023-04-01T05:40:16;3.30;;;0.90;;
47772;SDS011;33534;51.028;13.716;2023-04-01T05:42:42;4.15;;;0.95;;
47772;SDS011;33534;51.028;13.716;2023-04-01T05:45:08;3.63;;;1.17;;
47772;SDS011;33534;51.028;13.716;2023-04-01T05:47:34;2.30;;;0.88;;
47772;SDS011;33534;51.028;13.716;2023-04-01T05:50:00;3.95;;;1.40;;
47772;SDS011;33534;51.028;13.716;2023-04-01T05:52:26;5.65;;;1.23;;
47772;SDS011;33534;51.028;13.716;2023-04-01T05:54:52;5.72;;;1.58;;
47772;SDS011;33534;51.028;13.716;2023-04-01T05:57:18;6.28;;;1.50;;
47772;SDS011;33534;51.028;13.716;2023-04-01T05:59:44;3.45;;;1.10;;
47772;SDS011;33534;51.028;13.716;2023-04-01T06:02:11;5.68;;;1.42;;
47772;SDS011;33534;51.028;13.716;2023-04-01T06:04:37;7.22;;;1.20;;
47772;SDS011;33534;51.028;13.716;2023-04-01T06:07:13;6.43;;;1.35;;
47772;SDS011;33534;51.028;13.716;2023-04-01T06:09:40;6.07;;;1.67;;
47772;SDS011;33534;51.028;13.716;2023-04-01T06:15:03;5.40;;;1.40;;
47772;SDS011;33534;51.028;13.716;2023-04-01T06:25:43;4.35;;;0.95;;
47772;SDS011;33534;51.028;13.716;2023-04-01T06:48:26;3.60;;;1.20;;
47772;SDS011;33534;51.028;13.716;2023-04-01T06:55:57;5.47;;;1.70;;
47772;SDS011;33534;51.028;13.716;2023-04-01T07:00:56;2.90;;;1.10;;
47772;SDS011;33534;51.028;13.716;2023-04-01T07:05:54;4.63;;;1.27;;
47772;SDS011;33534;51.028;13.716;2023-04-01T07:08:23;4.22;;;1.17;;
47772;SDS011;33534;51.028;13.716;2023-04-01T07:13:30;3.40;;;1.02;;
47772;SDS011;33534;51.028;13.716;2023-04-01T07:16:03;1.98;;;1.02;;
47772;SDS011;33534;51.028;13.716;2023-04-01T07:21:02;4.50;;;1.15;;
47772;SDS011;33534;51.028;13.716;2023-04-01T07:23:31;2.53;;;0.90;;
47772;SDS011;33534;51.028;13.716;2023-04-01T07:26:03;1.98;;;0.60;;
47772;SDS011;33534;51.028;13.716;2023-04-01T07:28:32;3.78;;;1.10;;
47772;SDS011;33534;51.028;13.716;2023-04-01T07:31:14;1.92;;;0.80;;
47772;SDS011;33534;51.028;13.716;2023-04-01T07:34:45;3.45;;;1.38;;
47772;SDS011;33534;51.028;13.716;2023-04-01T07:39:27;10.10;;;1.40;;
47772;SDS011;33534;51.028;13.716;2023-04-01T07:58:06;3.55;;;1.45;;
47772;SDS011;33534;51.028;13.716;2023-04-01T08:00:37;2.55;;;1.10;;
47772;SDS011;33534;51.028;13.716;2023-04-01T08:05:59;5.85;;;1.38;;
47772;SDS011;33534;51.028;13.716;2023-04-01T08:10:57;3.50;;;0.73;;
47772;SDS011;33534;51.028;13.716;2023-04-01T08:13:45;3.00;;;1.10;;
47772;SDS011;33534;51.028;13.716;2023-04-01T08:18:39;2.42;;;0.98;;
47772;SDS011;33534;51.028;13.716;2023-04-01T08:21:10;3.83;;;0.83;;
47772;SDS011;33534;51.028;13.716;2023-04-01T08:23:38;2.58;;;1.08;;
47772;SDS011;33534;51.028;13.716;2023-04-01T08:26:53;2.70;;;0.82;;
47772;SDS011;33534;51.028;13.716;2023-04-01T08:29:04;3.45;;;0.93;;
47772;SDS011;33534;51.028;13.716;2023-04-01T08:31:33;4.32;;;1.50;;
47772;SDS011;33534;51.028;13.716;2023-04-01T08:34:03;3.33;;;0.80;;
47772;SDS011;33534;51.028;13.716;2023-04-01T08:36:40;3.58;;;0.90;;
47772;SDS011;33534;51.028;13.716;2023-04-01T08:39:18;1.75;;;0.70;;
47772;SDS011;33534;51.028;13.716;2023-04-01T08:42:03;1.42;;;0.63;;
47772;SDS011;33534;51.028;13.716;2023-04-01T09:05:37;2.92;;;0.93;;
47772;SDS011;33534;51.028;13.716;2023-04-01T09:08:12;2.40;;;0.68;;
47772;SDS011;33534;51.028;13.716;2023-04-01T09:13:27;2.00;;;0.95;;
47772;SDS011;33534;51.028;13.716;2023-04-01T09:21:22;2.30;;;0.75;;
47772;SDS011;33534;51.028;13.716;2023-04-01T09:26:38;2.70;;;1.15;;
47772;SDS011;33534;51.028;13.716;2023-04-01T10:29:18;2.65;;;0.70;;
47772;SDS011;33534;51.028;13.716;2023-04-01T10:52:12;2.42;;;0.73;;
47772;SDS011;33534;51.028;13.716;2023-04-01T10:55:35;0.85;;;0.50;;
47772;SDS011;33534;51.028;13.716;2023-04-01T10:57:38;3.60;;;0.85;;
47772;SDS011;33534;51.028;13.716;2023-04-01T11:10:30;1.20;;;0.90;;
47772;SDS011;33534;51.028;13.716;2023-04-01T11:18:37;8.68;;;0.88;;
47772;SDS011;33534;51.028;13.716;2023-04-01T11:23:53;1.50;;;0.85;;
47772;SDS011;33534;51.028;13.716;2023-04-01T11:34:02;0.90;;;0.45;;
47772;SDS011;33534;51.028;13.716;2023-04-01T11:41:55;0.63;;;0.32;;
47772;SDS011;33534;51.028;13.716;2023-04-01T11:44:26;1.58;;;0.45;;
47772;SDS011;33534;51.028;13.716;2023-04-01T11:54:24;1.40;;;0.63;;
47772;SDS011;33534;51.028;13.716;2023-04-01T11:56:59;1.13;;;0.40;;
47772;SDS011;33534;51.028;13.716;2023-04-01T12:02:20;0.75;;;0.40;;
47772;SDS011;33534;51.028;13.716;2023-04-01T12:05:03;1.70;;;0.80;;
47772;SDS011;33534;51.028;13.716;2023-04-01T12:10:33;0.77;;;0.52;;
47772;SDS011;33534;51.028;13.716;2023-04-01T12:15:59;1.80;;;0.70;;
47772;SDS011;33534;51.028;13.716;2023-04-01T12:21:31;1.00;;;0.47;;
47772;SDS011;33534;51.028;13.716;2023-04-01T12:24:16;1.40;;;0.65;;
47772;SDS011;33534;51.028;13.716;2023-04-01T12:32:14;0.88;;;0.60;;
47772;SDS011;33534;51.028;13.716;2023-04-01T12:45:16;3.67;;;0.98;;
47772;SDS011;33534;51.028;13.716;2023-04-01T12:47:52;3.83;;;0.90;;
47772;SDS011;33534;51.028;13.716;2023-04-01T12:58:06;3.25;;;1.00;;
47772;SDS011;33534;51.028;13.716;2023-04-01T13:00:48;1.40;;;0.65;;
47772;SDS011;33534;51.028;13.716;2023-04-01T13:16:28;0.30;;;0.28;;
47772;SDS011;33534;51.028;13.716;2023-04-01T13:19:06;2.10;;;0.28;;
47772;SDS011;33534;51.028;13.716;2023-04-01T13:21:38;1.00;;;0.55;;
47772;SDS011;33534;51.028;13.716;2023-04-01T13:24:10;1.92;;;0.45;;
47772;SDS011;33534;51.028;13.716;2023-04-01T13:39:40;2.88;;;1.73;;
47772;SDS011;33534;51.028;13.716;2023-04-01T13:42:16;6.82;;;4.78;;
47772;SDS011;33534;51.028;13.716;2023-04-01T14:10:06;8.80;;;4.97;;
47772;SDS011;33534;51.028;13.716;2023-04-01T14:12:53;5.45;;;3.50;;
47772;SDS011;33534;51.028;13.716;2023-04-01T14:43:38;1.35;;;0.88;;
47772;SDS011;33534;51.028;13.716;2023-04-01T14:51:13;2.35;;;1.38;;
47772;SDS011;33534;51.028;13.716;2023-04-01T14:53:45;1.20;;;0.50;;
47772;SDS011;33534;51.028;13.716;2023-04-01T14:56:34;2.17;;;1.40;;
47772;SDS011;33534;51.028;13.716;2023-04-01T14:59:00;2.40;;;2.03;;
47772;SDS011;33534;51.028;13.716;2023-04-01T15:07:02;0.38;;;0.20;;
47772;SDS011;33534;51.028;13.716;2023-04-01T15:09:38;1.55;;;0.50;;
47772;SDS011;33534;51.028;13.716;2023-04-01T15:12:19;0.70;;;0.30;;
47772;SDS011;33534;51.028;13.716;2023-04-01T15:20:36;0.55;;;0.47;;
47772;SDS011;33534;51.028;13.716;2023-04-01T15:33:41;1.67;;;0.85;;
47772;SDS011;33534;51.028;13.716;2023-04-01T15:43:48;1.50;;;0.80;;
47772;SDS011;33534;51.028;13.716;2023-04-01T15:46:31;2.00;;;1.33;;
47772;SDS011;33534;51.028;13.716;2023-04-01T15:49:06;1.75;;;0.60;;
47772;SDS011;33534;51.028;13.716;2023-04-01T15:51:40;2.15;;;0.75;;
47772;SDS011;33534;51.028;13.716;2023-04-01T15:54:21;1.20;;;0.70;;
47772;SDS011;33534;51.028;13.716;2023-04-01T15:56:54;1.20;;;0.70;;
47772;SDS011;33534;51.028;13.716;2023-04-01T15:59:41;0.80;;;0.68;;
47772;SDS011;33534;51.028;13.716;2023-04-01T16:04:57;0.57;;;0.30;;
47772;SDS011;33534;51.028;13.716;2023-04-01T16:07:40;0.77;;;0.40;;
47772;SDS011;33534;51.028;13.716;2023-04-01T16:12:54;3.10;;;1.13;;
47772;SDS011;33534;51.028;13.716;2023-04-01T16:15:27;0.82;;;0.65;;
47772;SDS011;33534;51.028;13.716;2023-04-01T16:25:51;1.10;;;0.57;;
47772;SDS011;33534;51.028;13.716;2023-04-01T16:28:28;1.27;;;0.60;;
47772;SDS011;33534;51.028;13.716;2023-04-01T16:31:16;1.10;;;0.73;;
47772;SDS011;33534;51.028;13.716;2023-04-01T16:41:34;1.08;;;0.70;;
47772;SDS011;33534;51.028;13.716;2023-04-01T16:44:09;1.25;;;0.60;;
47772;SDS011;33534;51.028;13.716;2023-04-01T16:46:43;1.35;;;0.82;;
47772;SDS011;33534;51.028;13.716;2023-04-01T16:59:35;1.35;;;1.20;;
47772;SDS011;33534;51.028;13.716;2023-04-01T17:02:10;2.00;;;1.40;;
47772;SDS011;33534;51.028;13.716;2023-04-01T17:13:01;2.25;;;1.60;;
47772;SDS011;33534;51.028;13.716;2023-04-01T17:20:41;2.28;;;1.40;;
47772;SDS011;33534;51.028;13.716;2023-04-01T17:23:17;2.17;;;1.20;;
47772;SDS011;33534;51.028;13.716;2023-04-01T17:30:42;1.27;;;0.93;;
47772;SDS011;33534;51.028;13.716;2023-04-01T17:43:42;6.18;;;4.65;;
47772;SDS011;33534;51.028;13.716;2023-04-01T17:46:34;5.63;;;3.88;;
47772;SDS011;33534;51.028;13.716;2023-04-01T17:54:26;5.85;;;4.47;;
47772;SDS011;33534;51.028;13.716;2023-04-01T17:59:36;4.57;;;3.53;;
47772;SDS011;33534;51.028;13.716;2023-04-01T18:17:27;5.07;;;3.65;;
47772;SDS011;33534;51.028;13.716;2023-04-01T18:22:46;4.18;;;3.20;;
47772;SDS011;33534;51.028;13.716;2023-04-01T18:25:19;4.72;;;3.38;;
47772;SDS011;33534;51.028;13.716;2023-04-01T18:27:49;3.63;;;2.65;;
47772;SDS011;33534;51.028;13.716;2023-04-01T18:30:17;3.22;;;2.40;;
47772;SDS011;33534;51.028;13.716;2023-04-01T18:32:47;3.42;;;2.50;;
47772;SDS011;33534;51.028;13.716;2023-04-01T18:37:50;3.38;;;2.08;;
47772;SDS011;33534;51.028;13.716;2023-04-01T18:45:46;4.05;;;2.40;;
47772;SDS011;33534;51.028;13.716;2023-04-01T18:51:01;5.03;;;2.15;;
47772;SDS011;33534;51.028;13.716;2023-04-01T18:53:30;7.25;;;2.45;;
47772;SDS011;33534;51.028;13.716;2023-04-01T18:56:02;5.35;;;2.25;;
47772;SDS011;33534;51.028;13.716;2023-04-01T19:03:26;4.82;;;2.80;;
47772;SDS011;33534;51.028;13.716;2023-04-01T19:05:56;5.70;;;3.58;;
47772;SDS011;33534;51.028;13.716;2023-04-01T19:08:34;5.03;;;3.55;;
47772;SDS011;33534;51.028;13.716;2023-04-01T19:11:05;5.50;;;3.88;;
47772;SDS011;33534;51.028;13.716;2023-04-01T19:13:41;4.85;;;3.45;;
47772;SDS011;33534;51.028;13.716;2023-04-01T19:21:28;5.70;;;3.80;;
47772;SDS011;33534;51.028;13.716;2023-04-01T19:28:53;6.15;;;4.45;;
47772;SDS011;33534;51.028;13.716;2023-04-01T19:31:33;7.87;;;4.97;;
47772;SDS011;33534;51.028;13.716;2023-04-01T19:36:46;6.15;;;4.30;;
47772;SDS011;33534;51.028;13.716;2023-04-01T19:46:49;4.82;;;3.42;;
47772;SDS011;33534;51.028;13.716;2023-04-01T19:54:49;7.88;;;3.33;;
47772;SDS011;33534;51.028;13.716;2023-04-01T19:57:22;5.57;;;4.00;;
47772;SDS011;33534;51.028;13.716;2023-04-01T20:05:02;6.22;;;4.25;;
47772;SDS011;33534;51.028;13.716;2023-04-01T20:07:34;6.75;;;4.22;;
47772;SDS011;33534;51.028;13.716;2023-04-01T20:15:27;4.82;;;3.40;;
47772;SDS011;33534;51.028;13.716;2023-04-01T20:17:56;7.68;;;4.18;;
47772;SDS011;33534;51.028;13.716;2023-04-01T20:20:29;5.65;;;4.05;;
47772;SDS011;33534;51.028;13.716;2023-04-01T20:25:48;8.18;;;3.97;;
47772;SDS011;33534;51.028;13.716;2023-04-01T20:33:20;5.47;;;4.55;;
47772;SDS011;33534;51.028;13.716;2023-04-01T20:35:50;6.35;;;4.50;;
47772;SDS011;33534;51.028;13.716;2023-04-01T20:40:57;6.78;;;4.28;;
47772;SDS011;33534;51.028;13.716;2023-04-01T20:48:48;7.68;;;4.18;;
47772;SDS011;33534;51.028;13.716;2023-04-01T20:52:02;6.90;;;4.00;;
47772;SDS011;33534;51.028;13.716;2023-04-01T20:57:00;6.55;;;4.03;;
47772;SDS011;33534;51.028;13.716;2023-04-01T21:10:05;7.65;;;5.05;;
47772;SDS011;33534;51.028;13.716;2023-04-01T21:12:46;7.50;;;5.35;;
47772;SDS011;33534;51.028;13.716;2023-04-01T21:15:31;6.38;;;5.05;;
47772;SDS011;33534;51.028;13.716;2023-04-01T21:18:06;6.10;;;5.05;;
47772;SDS011;33534;51.028;13.716;2023-04-01T21:36:14;15.98;;;10.55;;
47772;SDS011;33534;51.028;13.716;2023-04-01T21:41:25;10.93;;;8.80;;
47772;SDS011;33534;51.028;13.716;2023-04-01T21:44:04;16.05;;;11.35;;
47772;SDS011;33534;51.028;13.716;2023-04-01T21:49:17;13.23;;;11.85;;
47772;SDS011;33534;51.028;13.716;2023-04-01T22:04:59;3.25;;;2.92;;
47772;SDS011;33534;51.028;13.716;2023-04-01T22:07:29;2.20;;;1.92;;
47772;SDS011;33534;51.028;13.716;2023-04-01T22:12:31;3.05;;;2.30;;
47772;SDS011;33534;51.028;13.716;2023-04-01T22:23:13;4.28;;;3.25;;
47772;SDS011;33534;51.028;13.716;2023-04-01T22:25:23;4.82;;;3.85;;
47772;SDS011;33534;51.028;13.716;2023-04-01T22:30:23;5.93;;;4.68;;
47772;SDS011;33534;51.028;13.716;2023-04-01T22:32:57;8.38;;;5.05;;
47772;SDS011;33534;51.028;13.716;2023-04-01T22:35:29;7.90;;;6.07;;
47772;SDS011;33534;51.028;13.716;2023-04-01T22:40:58;7.45;;;5.90;;
47772;SDS011;33534;51.028;13.716;2023-04-01T22:48:49;8.35;;;6.75;;
47772;SDS011;33534;51.028;13.716;2023-04-01T22:51:22;9.15;;;6.97;;
47772;SDS011;33534;51.028;13.716;2023-04-01T22:56:29;11.50;;;7.07;;
47772;SDS011;33534;51.028;13.716;2023-04-01T22:59:00;10.77;;;7.03;;
47772;SDS011;33534;51.028;13.716;2023-04-01T23:01:29;10.07;;;7.20;;
47772;SDS011;33534;51.028;13.716;2023-04-01T23:03:56;11.85;;;7.60;;
47772;SDS011;33534;51.028;13.716;2023-04-01T23:06:24;11.30;;;7.13;;
47772;SDS011;33534;51.028;13.716;2023-04-01T23:08:58;14.07;;;7.00;;
47772;SDS011;33534;51.028;13.716;2023-04-01T23:14:39;11.20;;;7.15;;
47772;SDS011;33534;51.028;13.716;2023-04-01T23:16:43;13.93;;;7.30;;
47772;SDS011;33534;51.028;13.716;2023-04-01T23:19:17;13.43;;;8.40;;
47772;SDS011;33534;51.028;13.716;2023-04-01T23:21:49;16.73;;;8.52;;
47772;SDS011;33534;51.028;13.716;2023-04-01T23:25:01;14.18;;;9.25;;
47772;SDS011;33534;51.028;13.716;2023-04-01T23:27:08;15.68;;;9.65;;
47772;SDS011;33534;51.028;13.716;2023-04-01T23:29:37;13.18;;;9.73;;
47772;SDS011;33534;51.028;13.716;2023-04-01T23:32:04;18.65;;;11.02;;
47772;SDS011;33534;51.028;13.716;2023-04-01T23:34:34;16.35;;;10.30;;
47772;SDS011;33534;51.028;13.716;2023-04-01T23:37:02;18.30;;;11.13;;
47772;SDS011;33534;51.028;13.716;2023-04-01T23:39:33;18.58;;;10.20;;
47772;SDS011;33534;51.028;13.716;2023-04-01T23:44:51;14.32;;;10.18;;
47772;SDS011;33534;51.028;13.716;2023-04-01T23:49:46;18.50;;;10.00;;
47772;SDS011;33534;51.028;13.716;2023-04-01T23:52:22;15.38;;;11.00;;
47772;SDS011;33534;51.028;13.716;2023-04-01T23:57:17;12.80;;;9.73;;
47772;SDS011;33534;51.028;13.716;2023-04-01T23:59:44;10.88;;;8.80;;
